Time;durP1;ratioP1;P1;durP2;ratioP2;P2;SDS_P1;SDS_P2;PMS_P1;PMS_P2;Temp;Humidity;BMP_temperature;BMP_pressure;BME280_temperature;BME280_humidity;BME280_pressure;Samples;Min_cycle;Max_cycle;Signal;HPM_P1;HPM_P2
2022/05/02 00:00:14;;;;;;;10.27;7.53;;;12.70;99.90;;;;;;4943724;29;20211;-75
2022/05/02 00:02:42;;;;;;;9.73;7.57;;;12.70;99.90;;;;;;4955120;28;20294;-75
2022/05/02 00:05:10;;;;;;;11.33;7.80;;;12.70;99.90;;;;;;4955460;29;20249;-75
2022/05/02 00:07:37;;;;;;;8.57;7.67;;;12.60;99.90;;;;;;4955292;28;20337;-74
2022/05/02 00:10:07;;;;;;;8.43;7.53;;;12.60;99.90;;;;;;4955077;29;20261;-74
2022/05/02 00:12:34;;;;;;;9.80;8.20;;;12.50;99.90;;;;;;4956245;28;20203;-74
2022/05/02 00:15:01;;;;;;;8.87;7.77;;;12.40;99.90;;;;;;4948057;28;20203;-75
2022/05/02 00:20:11;;;;;;;9.67;8.40;;;12.50;99.90;;;;;;4954367;28;20198;-75
2022/05/02 00:22:37;;;;;;;11.80;8.10;;;12.50;99.90;;;;;;4954708;28;20238;-75
2022/05/02 00:25:06;;;;;;;11.10;8.10;;;12.50;99.90;;;;;;4955550;29;20631;-74
2022/05/02 00:27:33;;;;;;;8.93;7.70;;;12.40;99.90;;;;;;4955175;29;20316;-75
2022/05/02 00:30:00;;;;;;;9.43;7.73;;;12.40;99.90;;;;;;4943230;29;20209;-75
2022/05/02 00:32:27;;;;;;;10.43;7.90;;;12.30;99.90;;;;;;4954604;29;20198;-74
2022/05/02 00:34:54;;;;;;;11.47;8.60;;;12.40;99.90;;;;;;4955474;28;20309;-74
2022/05/02 00:37:22;;;;;;;10.43;8.80;;;12.40;99.90;;;;;;4953629;28;20302;-74
2022/05/02 00:39:49;;;;;;;10.47;8.43;;;12.40;99.90;;;;;;4955137;28;20663;-75
2022/05/02 00:42:18;;;;;;;10.87;8.20;;;12.40;99.90;;;;;;4954695;28;20825;-74
2022/05/02 00:44:45;;;;;;;8.93;7.97;;;12.30;99.90;;;;;;4955074;29;20203;-74
2022/05/02 00:47:15;;;;;;;8.90;8.00;;;12.30;99.90;;;;;;4955323;28;20314;-75
2022/05/02 00:49:42;;;;;;;12.27;9.07;;;12.30;99.90;;;;;;4955228;28;20218;-74
2022/05/02 00:52:10;;;;;;;9.67;8.63;;;12.30;99.90;;;;;;4953662;28;20753;-74
2022/05/02 00:54:38;;;;;;;10.67;8.40;;;12.30;99.90;;;;;;4953207;28;20217;-75
2022/05/02 00:57:07;;;;;;;9.80;8.63;;;12.30;99.90;;;;;;4954884;28;20209;-75
2022/05/02 00:59:35;;;;;;;10.10;8.97;;;12.30;99.90;;;;;;4954250;29;20206;-74
2022/05/02 01:02:02;;;;;;;10.23;8.50;;;12.20;99.90;;;;;;4954646;29;20274;-74
2022/05/02 01:04:29;;;;;;;11.43;8.70;;;12.20;99.90;;;;;;4954723;29;20706;-75
2022/05/02 01:09:44;;;;;;;11.10;8.80;;;12.20;99.90;;;;;;4953139;28;20258;-74
2022/05/02 01:12:14;;;;;;;10.80;8.77;;;12.20;99.90;;;;;;4953554;28;20237;-74
2022/05/02 01:14:42;;;;;;;11.40;8.80;;;12.20;99.90;;;;;;4954135;28;20210;-75
2022/05/02 01:17:10;;;;;;;9.50;8.47;;;12.20;99.90;;;;;;4937070;29;20211;-75
2022/05/02 01:19:37;;;;;;;9.90;8.90;;;12.20;99.90;;;;;;4934826;29;20210;-75
2022/05/02 01:22:07;;;;;;;10.03;8.70;;;12.20;99.90;;;;;;4935245;29;20246;-74
2022/05/02 01:24:36;;;;;;;10.10;8.90;;;12.20;99.90;;;;;;4935412;29;20277;-75
2022/05/02 01:27:05;;;;;;;9.80;8.80;;;12.20;99.90;;;;;;4940829;28;20221;-75
2022/05/02 01:29:33;;;;;;;11.57;9.17;;;12.20;99.90;;;;;;4953881;29;20621;-75
2022/05/02 01:32:00;;;;;;;11.90;8.97;;;12.10;99.90;;;;;;4953855;29;20203;-75
2022/05/02 01:34:27;;;;;;;10.17;8.80;;;12.20;99.90;;;;;;4953363;29;20238;-75
2022/05/02 01:36:55;;;;;;;11.43;9.27;;;12.10;99.90;;;;;;4953772;29;20706;-74
2022/05/02 01:39:23;;;;;;;10.23;8.93;;;12.10;99.90;;;;;;4954352;29;20207;-75
2022/05/02 01:41:50;;;;;;;11.10;8.60;;;12.10;99.90;;;;;;4954081;29;20207;-75
2022/05/02 01:44:17;;;;;;;9.80;8.40;;;12.00;99.90;;;;;;4936596;29;20294;-74
2022/05/02 01:46:44;;;;;;;10.40;9.30;;;12.00;99.90;;;;;;4942145;29;20313;-75
2022/05/02 01:49:11;;;;;;;10.30;9.03;;;11.90;99.90;;;;;;4946343;28;20678;-75
2022/05/02 01:51:38;;;;;;;11.83;9.37;;;11.90;99.90;;;;;;4945323;28;20294;-75
2022/05/02 01:54:05;;;;;;;11.73;9.00;;;11.90;99.90;;;;;;4951509;29;20237;-75
2022/05/02 01:56:33;;;;;;;11.97;9.10;;;11.90;99.90;;;;;;4953777;29;20206;-74
2022/05/02 01:59:00;;;;;;;13.37;8.83;;;11.90;99.90;;;;;;4947352;29;20280;-74
2022/05/02 02:01:28;;;;;;;10.37;8.67;;;11.90;99.90;;;;;;4945640;29;20245;-75
2022/05/02 02:03:54;;;;;;;10.33;8.60;;;11.80;99.90;;;;;;4952941;29;20289;-74
2022/05/02 02:06:21;;;;;;;13.57;8.80;;;11.80;99.90;;;;;;4936343;29;20293;-75
2022/05/02 02:08:49;;;;;;;9.97;8.93;;;11.80;99.90;;;;;;4950964;28;20687;-75
2022/05/02 02:11:17;;;;;;;11.07;8.80;;;11.80;99.90;;;;;;4953481;28;20208;-74
2022/05/02 02:13:46;;;;;;;10.00;9.00;;;11.70;99.90;;;;;;4939923;29;20214;-74
2022/05/02 02:16:13;;;;;;;11.87;8.67;;;11.70;99.90;;;;;;4943263;29;20302;-75
2022/05/02 02:18:42;;;;;;;10.83;8.73;;;11.60;99.90;;;;;;4952761;29;20199;-75
2022/05/02 02:21:10;;;;;;;10.50;8.70;;;11.60;99.90;;;;;;4953494;28;20689;-75
2022/05/02 02:23:38;;;;;;;10.97;8.57;;;11.60;99.90;;;;;;4953345;28;20302;-74
2022/05/02 02:26:06;;;;;;;10.03;8.80;;;11.50;99.90;;;;;;4938764;29;20230;-75
2022/05/02 02:28:33;;;;;;;10.90;9.60;;;11.50;99.90;;;;;;4938108;29;20272;-75
2022/05/02 02:31:01;;;;;;;12.53;8.87;;;11.50;99.90;;;;;;4938402;29;20214;-76
2022/05/02 02:33:28;;;;;;;9.80;8.77;;;11.50;99.90;;;;;;4938124;29;20256;-74
2022/05/02 02:35:55;;;;;;;11.73;8.80;;;11.50;99.90;;;;;;4942542;29;20261;-75
2022/05/02 02:38:22;;;;;;;10.13;8.67;;;11.50;99.90;;;;;;4957327;28;20598;-75
2022/05/02 02:40:49;;;;;;;10.37;9.20;;;11.50;99.90;;;;;;4955599;28;20292;-75
2022/05/02 02:43:16;;;;;;;10.90;9.20;;;11.50;99.90;;;;;;4937755;29;20261;-75
2022/05/02 02:45:43;;;;;;;11.37;8.67;;;11.50;99.90;;;;;;4938123;29;20248;-74
2022/05/02 02:48:12;;;;;;;10.67;9.50;;;11.50;99.90;;;;;;4955027;29;20332;-74
2022/05/02 02:50:39;;;;;;;11.17;8.63;;;11.50;99.90;;;;;;4957164;29;20290;-73
2022/05/02 02:53:06;;;;;;;9.57;8.57;;;11.50;99.90;;;;;;4945846;29;20261;-74
2022/05/02 02:55:33;;;;;;;11.80;8.80;;;11.50;99.90;;;;;;4949555;29;20681;-74
2022/05/02 02:58:00;;;;;;;11.07;8.27;;;11.50;99.90;;;;;;4937785;29;20604;-73
2022/05/02 03:00:27;;;;;;;12.03;8.53;;;11.50;99.90;;;;;;4947452;29;20323;-74
2022/05/02 03:02:54;;;;;;;13.53;8.80;;;11.50;99.90;;;;;;4956085;29;20238;-74
2022/05/02 03:08:04;;;;;;;12.07;9.07;;;11.40;99.90;;;;;;4943482;28;20582;-73
2022/05/02 03:10:31;;;;;;;11.90;8.53;;;11.40;99.90;;;;;;4957011;29;20303;-74
2022/05/02 03:12:58;;;;;;;10.13;8.67;;;11.30;99.90;;;;;;4955948;29;20209;-74
2022/05/02 03:15:25;;;;;;;9.63;8.67;;;11.30;99.90;;;;;;4950181;29;20903;-74
2022/05/02 03:17:52;;;;;;;11.37;8.67;;;11.20;99.90;;;;;;4953175;29;20237;-74
2022/05/02 03:20:19;;;;;;;10.90;8.90;;;11.20;99.90;;;;;;4956573;29;20293;-74
2022/05/02 03:22:48;;;;;;;11.63;9.10;;;11.20;99.90;;;;;;4939578;29;20233;-74
2022/05/02 03:25:15;;;;;;;9.00;7.97;;;11.20;99.90;;;;;;4956155;29;20208;-74
2022/05/02 03:27:42;;;;;;;11.17;8.57;;;11.20;99.90;;;;;;4956685;29;20320;-74
2022/05/02 03:30:09;;;;;;;10.33;8.70;;;11.30;99.90;;;;;;4955934;29;20237;-74
2022/05/02 03:32:36;;;;;;;10.47;8.93;;;11.20;99.90;;;;;;4950757;29;20298;-74
2022/05/02 03:35:04;;;;;;;10.10;8.97;;;11.20;99.90;;;;;;4936424;29;20302;-74
2022/05/02 03:37:31;;;;;;;14.10;8.93;;;11.10;99.90;;;;;;4936818;29;20233;-75
2022/05/02 03:39:59;;;;;;;10.80;8.83;;;11.10;99.90;;;;;;4937383;29;20285;-74
2022/05/02 03:42:26;;;;;;;10.97;8.60;;;11.10;99.90;;;;;;4946126;29;20746;-73
2022/05/02 03:44:53;;;;;;;11.07;8.80;;;11.10;99.90;;;;;;4956089;29;20209;-74
2022/05/02 03:47:20;;;;;;;10.20;8.70;;;11.10;99.90;;;;;;4948568;28;20313;-73
2022/05/02 03:49:47;;;;;;;11.03;8.80;;;11.10;99.90;;;;;;4956175;29;20661;-76
2022/05/02 03:52:14;;;;;;;10.40;8.67;;;11.10;99.90;;;;;;4956219;28;20289;-73
2022/05/02 03:54:41;;;;;;;10.23;9.13;;;11.10;99.90;;;;;;4955798;28;20240;-76
2022/05/02 03:57:09;;;;;;;12.03;8.93;;;11.10;99.90;;;;;;4955953;29;20291;-74
2022/05/02 03:59:36;;;;;;;10.23;8.77;;;11.10;99.90;;;;;;4954719;28;20680;-76
2022/05/02 04:02:03;;;;;;;10.73;8.90;;;11.00;99.90;;;;;;4955925;29;20292;-76
2022/05/02 04:04:30;;;;;;;11.67;9.30;;;11.00;99.90;;;;;;4955803;29;20232;-75
2022/05/02 04:06:57;;;;;;;10.70;8.67;;;11.10;99.90;;;;;;4954464;29;20716;-76
2022/05/02 04:09:24;;;;;;;11.97;9.33;;;11.10;99.90;;;;;;4936521;29;20702;-76
2022/05/02 04:11:51;;;;;;;10.87;9.20;;;11.00;99.90;;;;;;4938977;29;20290;-75
2022/05/02 04:14:20;;;;;;;13.33;8.97;;;11.00;99.90;;;;;;4955553;29;20290;-75
2022/05/02 04:16:47;;;;;;;10.60;8.77;;;11.00;99.90;;;;;;4947746;29;20204;-75
2022/05/02 04:19:15;;;;;;;11.73;9.53;;;11.00;99.90;;;;;;4936459;29;20281;-75
2022/05/02 04:21:42;;;;;;;10.83;9.40;;;10.90;99.90;;;;;;4935889;29;20205;-75
2022/05/02 04:24:09;;;;;;;12.17;10.13;;;10.90;99.90;;;;;;4935976;29;20233;-75
2022/05/02 04:26:36;;;;;;;10.73;9.63;;;10.90;99.90;;;;;;4938102;29;20728;-76
2022/05/02 04:29:03;;;;;;;11.87;9.77;;;10.90;99.90;;;;;;4953151;28;20315;-75
2022/05/02 04:31:32;;;;;;;10.97;9.87;;;10.80;99.90;;;;;;4955312;29;20315;-75
2022/05/02 04:33:58;;;;;;;12.07;9.67;;;10.80;99.90;;;;;;4947544;28;20281;-75
2022/05/02 04:36:25;;;;;;;12.47;9.77;;;10.80;99.90;;;;;;4954516;28;20266;-75
2022/05/02 04:38:52;;;;;;;11.73;9.63;;;10.70;99.90;;;;;;4941662;28;20237;-75
2022/05/02 04:41:19;;;;;;;12.33;9.50;;;10.70;99.90;;;;;;4935951;29;20247;-76
2022/05/02 04:43:51;;;;;;;12.47;9.57;;;10.70;99.90;;;;;;4935745;29;20266;-74
2022/05/02 04:46:19;;;;;;;10.57;9.27;;;10.70;99.90;;;;;;4935491;29;20200;-74
2022/05/02 04:48:47;;;;;;;13.10;10.17;;;10.70;99.90;;;;;;4939185;29;20823;-75
2022/05/02 04:51:14;;;;;;;11.63;9.73;;;10.70;99.90;;;;;;4954427;29;20203;-75
2022/05/02 04:53:41;;;;;;;11.73;9.93;;;10.70;99.90;;;;;;4954396;28;20233;-75
2022/05/02 04:56:08;;;;;;;13.67;10.70;;;10.70;99.90;;;;;;4946556;29;20198;-75
2022/05/02 04:58:35;;;;;;;14.07;9.87;;;10.70;99.90;;;;;;4942362;29;20204;-75
2022/05/02 05:01:02;;;;;;;12.77;10.07;;;10.70;99.90;;;;;;4940087;29;20620;-75
2022/05/02 05:03:29;;;;;;;13.63;10.50;;;10.60;99.90;;;;;;4945030;29;20200;-76
2022/05/02 05:05:57;;;;;;;12.83;10.43;;;10.70;99.90;;;;;;4949588;29;20213;-76
2022/05/02 05:08:24;;;;;;;12.63;10.50;;;10.70;99.90;;;;;;4945507;28;20338;-75
2022/05/02 05:11:00;;;;;;;14.20;10.90;;;10.70;99.90;;;;;;4953782;29;20724;-75
2022/05/02 05:13:33;;;;;;;13.13;10.67;;;10.70;99.90;;;;;;4945156;29;20245;-75
2022/05/02 05:16:26;;;;;;;11.77;9.63;;;10.70;99.90;;;;;;4947692;29;20322;-76
2022/05/02 05:19:21;;;;;;;12.40;9.63;;;10.80;99.90;;;;;;4934842;29;20697;-74
2022/05/02 05:22:00;;;;;;;13.20;10.20;;;10.80;99.90;;;;;;4935330;29;20308;-74
2022/05/02 05:24:55;;;;;;;12.33;10.23;;;10.70;99.90;;;;;;4945879;29;20624;-74
2022/05/02 05:27:53;;;;;;;11.17;9.97;;;10.60;99.90;;;;;;4946680;29;20242;-74
2022/05/02 05:30:21;;;;;;;12.77;10.40;;;10.70;99.90;;;;;;4886906;29;20250;-75
2022/05/02 05:32:58;;;;;;;12.43;10.27;;;10.70;99.90;;;;;;4886226;29;20580;-77
2022/05/02 05:35:38;;;;;;;13.00;10.60;;;10.70;99.90;;;;;;4889139;29;20229;-77
2022/05/02 05:38:10;;;;;;;11.70;9.90;;;10.70;99.90;;;;;;4884797;29;20237;-78
2022/05/02 05:40:39;;;;;;;14.17;10.60;;;10.70;99.90;;;;;;4886319;29;20321;-76
2022/05/02 05:43:24;;;;;;;15.17;10.53;;;10.70;99.90;;;;;;4884777;29;20268;-75
2022/05/02 05:46:07;;;;;;;12.93;10.77;;;10.80;99.90;;;;;;4900496;29;20267;-76
2022/05/02 05:48:50;;;;;;;14.03;10.30;;;10.80;99.90;;;;;;4909832;29;20300;-78
2022/05/02 05:51:33;;;;;;;12.27;10.60;;;10.90;99.90;;;;;;4879524;29;20292;-77
2022/05/02 05:54:15;;;;;;;15.47;10.30;;;11.00;99.90;;;;;;4893555;29;20298;-75
2022/05/02 05:56:55;;;;;;;13.17;10.70;;;11.00;99.90;;;;;;4893970;29;20239;-75
2022/05/02 05:59:32;;;;;;;14.33;11.03;;;11.20;99.90;;;;;;4894124;29;20255;-76
2022/05/02 06:02:07;;;;;;;11.53;10.33;;;11.20;99.90;;;;;;4892811;29;20266;-76
2022/05/02 06:04:35;;;;;;;13.37;10.93;;;11.30;99.90;;;;;;4890310;29;20251;-78
2022/05/02 06:07:03;;;;;;;12.27;10.67;;;11.50;99.90;;;;;;4913620;29;20248;-75
2022/05/02 06:09:32;;;;;;;12.07;10.67;;;11.50;99.90;;;;;;4952187;29;20745;-77
2022/05/02 06:12:00;;;;;;;12.73;10.70;;;11.60;99.90;;;;;;4952758;29;20205;-75
2022/05/02 06:14:30;;;;;;;12.60;10.70;;;11.60;99.90;;;;;;4952660;29;20250;-77
2022/05/02 06:19:47;;;;;;;12.27;10.00;;;11.60;99.90;;;;;;4953686;29;20264;-75
2022/05/02 06:22:18;;;;;;;12.23;10.90;;;11.80;99.90;;;;;;4953297;29;20232;-75
2022/05/02 06:24:49;;;;;;;14.30;10.17;;;12.00;99.90;;;;;;4953344;29;20205;-75
2022/05/02 06:27:16;;;;;;;11.87;10.03;;;11.90;99.90;;;;;;4944457;29;20645;-76
2022/05/02 06:29:43;;;;;;;12.63;9.83;;;12.10;99.90;;;;;;4948899;29;20353;-77
2022/05/02 06:32:12;;;;;;;12.97;10.60;;;12.20;99.90;;;;;;4953486;29;20422;-77
2022/05/02 06:34:40;;;;;;;12.97;10.10;;;12.10;99.90;;;;;;4936546;29;20228;-76
2022/05/02 06:37:25;;;;;;;11.57;9.90;;;12.10;99.90;;;;;;4953659;29;20623;-76
2022/05/02 06:40:05;;;;;;;12.90;10.23;;;12.20;99.90;;;;;;4953600;29;20622;-77
2022/05/02 06:42:37;;;;;;;13.03;10.13;;;12.20;99.90;;;;;;4950292;29;20300;-76
2022/05/02 06:45:28;;;;;;;14.03;11.07;;;12.50;99.90;;;;;;4944694;28;20298;-76
2022/05/02 06:48:17;;;;;;;14.43;9.50;;;12.50;99.90;;;;;;4948059;28;20209;-75
2022/05/02 06:50:47;;;;;;;10.70;9.33;;;12.80;99.90;;;;;;4933874;29;20247;-76
2022/05/02 06:53:30;;;;;;;12.03;10.83;;;12.90;99.90;;;;;;4901389;29;20257;-77
2022/05/02 06:56:09;;;;;;;14.13;9.40;;;13.10;99.90;;;;;;4917706;29;20243;-76
2022/05/02 06:58:52;;;;;;;12.70;9.73;;;13.40;99.90;;;;;;4933741;29;20223;-75
2022/05/02 07:01:27;;;;;;;10.87;9.77;;;13.40;99.90;;;;;;4933655;29;20239;-77
2022/05/02 07:04:09;;;;;;;12.37;10.33;;;13.50;99.90;;;;;;4941993;28;20230;-77
2022/05/02 07:07:17;;;;;;;11.33;9.77;;;13.50;99.90;;;;;;4953084;29;20290;-77
2022/05/02 07:09:47;;;;;;;17.00;9.90;;;13.70;99.90;;;;;;4876413;29;20328;-77
2022/05/02 07:12:19;;;;;;;13.83;9.53;;;13.60;99.90;;;;;;4878892;29;20269;-76
2022/05/02 07:15:04;;;;;;;11.23;9.40;;;13.80;99.90;;;;;;4880176;29;20206;-77
2022/05/02 07:17:46;;;;;;;12.33;9.47;;;13.60;99.90;;;;;;4884395;29;20280;-77
2022/05/02 07:20:18;;;;;;;10.10;9.10;;;13.50;99.90;;;;;;4878354;29;20198;-74
2022/05/02 07:22:56;;;;;;;11.93;9.40;;;13.60;99.90;;;;;;4889134;29;20205;-77
2022/05/02 07:25:25;;;;;;;11.50;8.87;;;13.90;99.90;;;;;;4897346;29;20201;-77
2022/05/02 07:28:09;;;;;;;11.20;9.27;;;14.00;99.90;;;;;;4897647;29;20232;-75
2022/05/02 07:30:36;;;;;;;10.37;9.27;;;14.40;99.90;;;;;;4897080;29;20229;-75
2022/05/02 07:33:04;;;;;;;12.10;9.37;;;14.60;99.90;;;;;;4884938;29;20270;-77
2022/05/02 07:35:35;;;;;;;10.20;9.03;;;14.70;99.90;;;;;;4877713;29;20225;-77
2022/05/02 07:38:03;;;;;;;10.77;9.23;;;14.70;99.90;;;;;;4878162;29;20659;-75
2022/05/02 07:40:31;;;;;;;12.03;8.97;;;;;;;;;;4904103;29;20251;-75
2022/05/02 07:43:01;;;;;;;12.13;9.53;;;;;;;;;;4936872;29;20739;-75
2022/05/02 07:45:30;;;;;;;10.70;9.23;;;;;;;;;;4937010;29;20231;-75
2022/05/02 07:48:00;;;;;;;10.27;9.17;;;;;;;;;;4936915;29;20258;-76
2022/05/02 07:50:27;;;;;;;10.30;8.87;;;;;;;;;;4937135;29;20228;-76
2022/05/02 07:52:56;;;;;;;14.77;9.43;;;;;;;;;;4936293;29;20887;-76
2022/05/02 07:55:24;;;;;;;9.67;8.67;;;;;;;;;;4948202;29;20286;-75
2022/05/02 07:57:52;;;;;;;11.93;9.33;;;;;;;;;;4955920;29;20285;-75
2022/05/02 08:00:22;;;;;;;10.87;8.83;;;;;;;;;;4956133;29;20278;-76
2022/05/02 08:02:50;;;;;;;10.73;9.27;;;;;;;;;;4955318;29;20210;-77
2022/05/02 08:05:19;;;;;;;12.13;9.17;;;;;;;;;;4955720;29;20207;-76
2022/05/02 08:07:47;;;;;;;10.30;9.23;;;;;;;;;;4949279;28;20319;-76
2022/05/02 08:10:38;;;;;;;11.33;9.50;;;;;;;;;;4936693;29;20270;-77
2022/05/02 08:13:12;;;;;;;10.37;9.20;;;;;;;;;;4922069;29;20287;-77
2022/05/02 08:15:42;;;;;;;10.30;9.03;;;;;;;;;;4936411;29;20295;-77
2022/05/02 08:18:21;;;;;;;12.50;10.47;;;;;;;;;;4936493;29;20243;-77
2022/05/02 08:20:50;;;;;;;13.40;10.07;;;;;;;;;;4933846;29;20643;-77
2022/05/02 08:29:20;;;;;;;10.43;8.80;;;;;;;;;;4896165;29;20315;-77
2022/05/02 08:31:52;;;;;;;11.60;9.07;;;;;;;;;;4892201;29;20252;-77
2022/05/02 08:34:25;;;;;;;13.10;9.60;;;;;;;;;;4877808;29;20201;-78
2022/05/02 08:37:03;;;;;;;12.50;9.27;;;;;;;;;;4895892;29;20629;-77
2022/05/02 08:39:33;;;;;;;10.98;8.73;;;;;;;;;;4895524;29;20283;-77
2022/05/02 08:42:14;;;;;;;12.85;9.27;;;;;;;;;;4895712;29;20295;-77
2022/05/02 08:44:59;;;;;;;10.57;9.00;;;;;;;;;;4896025;29;20292;-77
2022/05/02 08:47:54;;;;;;;11.13;9.15;;;;;;;;;;4895860;29;20288;-77
2022/05/02 08:50:30;;;;;;;11.13;8.75;;;;;;;;;;4895453;29;20229;-78
2022/05/02 08:53:28;;;;;;;11.35;9.80;;;;;;;;;;4894921;29;20207;-77
2022/05/02 08:56:10;;;;;;;10.32;9.23;;;;;;;;;;4894265;29;20209;-77
2022/05/02 08:58:53;;;;;;;14.35;9.93;;;;;;;;;;4874938;29;20569;-77
2022/05/02 09:01:53;;;;;;;11.35;9.38;;;;;;;;;;4932410;29;20294;-77
2022/05/02 09:04:44;;;;;;;10.52;9.18;;;;;;;;;;4876432;29;20790;-77
2022/05/02 09:07:36;;;;;;;10.23;9.13;;;;;;;;;;4882052;29;20248;-78
2022/05/02 09:10:11;;;;;;;15.82;8.95;;;;;;;;;;4894977;29;20241;-77
2022/05/02 09:12:57;;;;;;;9.65;8.75;;;;;;;;;;4895412;29;20244;-77
2022/05/02 09:15:44;;;;;;;10.15;9.18;;;;;;;;;;4895188;29;20205;-77
2022/05/02 09:18:26;;;;;;;10.05;9.05;;;;;;;;;;4894722;29;20268;-78
2022/05/02 09:21:00;;;;;;;10.38;9.40;;;;;;;;;;4880341;29;20256;-78
2022/05/02 09:23:45;;;;;;;10.07;9.07;;;;;;;;;;4894753;29;20287;-78
2022/05/02 09:26:29;;;;;;;9.90;8.90;;;;;;;;;;4894822;29;20224;-77
2022/05/02 09:29:15;;;;;;;11.85;9.35;;;;;;;;;;4894815;29;20480;-78
2022/05/02 09:31:52;;;;;;;12.88;9.13;;;;;;;;;;4894461;29;20244;-78
2022/05/02 09:34:23;;;;;;;11.02;9.13;;;;;;;;;;4900879;29;20213;-78
2022/05/02 09:36:56;;;;;;;9.77;8.82;;;;;;;;;;4954247;29;20204;-78
2022/05/02 09:39:25;;;;;;;12.38;9.27;;;;;;;;;;4953524;29;20258;-77
2022/05/02 09:42:01;;;;;;;11.07;9.93;;;;;;;;;;4954202;29;20206;-77
2022/05/02 09:50:23;;;;;;;10.13;9.10;;;;;;;;;;4936877;29;20250;-78
2022/05/02 09:53:00;;;;;;;10.40;9.35;;;;;;;;;;4935187;29;20295;-78
2022/05/02 09:58:34;;;;;;;10.20;9.30;;;;;;;;;;4934651;29;20379;-78
2022/05/02 10:01:10;;;;;;;10.82;9.35;;;;;;;;;;4935054;29;20238;-78
2022/05/02 10:03:38;;;;;;;9.68;8.65;;;;;;;;;;4953083;28;20211;-78
2022/05/02 10:06:07;;;;;;;12.35;9.18;;;;;;;;;;4948131;29;20227;-78
2022/05/02 10:08:49;;;;;;;11.43;9.38;;;;;;;;;;4950285;28;20753;-78
2022/05/02 10:11:20;;;;;;;9.45;8.52;;;;;;;;;;4950493;28;20671;-78
2022/05/02 10:13:54;;;;;;;9.70;8.80;;;;;;;;;;4934886;29;20207;-78
2022/05/02 10:16:31;;;;;;;9.35;8.27;;;;;;;;;;4934162;29;20290;-78
2022/05/02 10:19:09;;;;;;;8.50;7.70;;;;;;;;;;4934732;29;20242;-79
2022/05/02 10:21:43;;;;;;;9.30;8.40;;;;;;;;;;4917503;29;20243;-78
2022/05/02 10:24:15;;;;;;;9.57;8.02;;;;;;;;;;4934473;29;20348;-79
2022/05/02 10:26:44;;;;;;;30.50;13.25;;;;;;;;;;4934438;29;20239;-79
2022/05/02 10:29:26;;;;;;;26.10;11.13;;;;;;;;;;4934370;29;20235;-78
2022/05/02 10:32:03;;;;;;;8.73;7.82;;;;;;;;;;4934398;29;20207;-79
2022/05/02 10:34:32;;;;;;;8.65;7.75;;;;;;;;;;4951133;29;20246;-79
2022/05/02 10:37:02;;;;;;;9.48;7.78;;;;;;;;;;4953910;29;20238;-79
2022/05/02 10:39:33;;;;;;;8.77;7.88;;;;;;;;;;4953452;29;20282;-79
2022/05/02 10:42:06;;;;;;;9.90;8.30;;;;;;;;;;4946598;29;20239;-79
2022/05/02 10:44:41;;;;;;;8.40;6.72;;;;;;;;;;4940998;28;20554;-78
2022/05/02 10:47:09;;;;;;;8.63;7.82;;;;;;;;;;4957062;29;20237;-79
2022/05/02 10:49:44;;;;;;;8.32;7.50;;;;;;;;;;4957191;29;21017;-79
2022/05/02 10:52:17;;;;;;;7.85;6.50;;;;;;;;;;4957767;29;20293;-78
2022/05/02 10:54:47;;;;;;;7.07;5.90;;;;;;;;;;4957185;29;20294;-78
2022/05/02 10:57:21;;;;;;;6.80;6.05;;;;;;;;;;4957422;29;20286;-79
2022/05/02 10:59:53;;;;;;;8.38;6.55;;;;;;;;;;4956880;29;20353;-79
2022/05/02 11:02:30;;;;;;;7.95;6.20;;;;;;;;;;4953650;29;20267;-78
2022/05/02 11:05:05;;;;;;;8.45;7.55;;;;;;;;;;4957148;28;20215;-78
2022/05/02 11:07:37;;;;;;;7.32;6.25;;;;;;;;;;4956849;28;20806;-78
2022/05/02 11:10:07;;;;;;;9.50;7.70;;;;;;;;;;4956087;28;20262;-79
2022/05/02 11:12:37;;;;;;;6.72;6.03;;;;;;;;;;4956851;28;20218;-78
2022/05/02 11:15:07;;;;;;;8.07;7.28;;;;;;;;;;4956130;29;20230;-78
2022/05/02 11:17:39;;;;;;;8.30;7.50;;;;;;;;;;4956529;29;20294;-79
2022/05/02 11:23:06;;;;;;;8.20;7.40;;;;;;;;;;4956690;29;20214;-78
2022/05/02 11:25:37;;;;;;;7.38;6.68;;;;;;;;;;4956765;29;20287;-79
2022/05/02 11:28:11;;;;;;;8.02;7.22;;;;;;;;;;4956635;29;20257;-79
2022/05/02 11:30:43;;;;;;;8.45;7.53;;;24.50;17.30;;;;;;4956416;29;20226;-78
2022/05/02 11:33:17;;;;;;;8.85;7.80;;;23.90;16.30;;;;;;4956779;29;20238;-79
2022/05/02 11:35:48;;;;;;;8.35;7.20;;;24.30;18.80;;;;;;4956618;29;20198;-79
2022/05/02 11:38:31;;;;;;;8.25;7.40;;;24.30;22.10;;;;;;4956596;29;20294;-79
2022/05/02 11:41:00;;;;;;;8.30;7.45;;;26.80;14.50;;;;;;4956305;29;20286;-79
2022/05/02 11:43:31;;;;;;;7.85;7.05;;;24.50;5.00;;;;;;4955737;29;20207;-78
2022/05/02 11:46:06;;;;;;;7.47;6.57;;;24.20;13.90;;;;;;4956292;29;20668;-79
2022/05/02 11:49:02;;;;;;;6.72;6.13;;;23.10;9.50;;;;;;4956524;29;20557;-78
2022/05/02 11:51:44;;;;;;;8.63;7.40;;;23.30;20.10;;;;;;4896859;29;20228;-79
2022/05/02 11:54:26;;;;;;;8.95;7.60;;;23.40;12.80;;;;;;4897158;29;20366;-79
2022/05/02 11:56:56;;;;;;;9.50;8.55;;;23.10;14.70;;;;;;4896156;29;20205;-79
2022/05/02 11:59:24;;;;;;;9.85;8.02;;;23.50;13.60;;;;;;4896431;29;20236;-78
2022/05/02 12:02:04;;;;;;;10.18;8.18;;;22.50;34.60;;;;;;4896917;29;20630;-79
2022/05/02 12:04:32;;;;;;;10.43;7.82;;;22.80;48.60;;;;;;4896993;29;20296;-78
2022/05/02 12:07:02;;;;;;;9.95;8.48;;;22.80;58.00;;;;;;4894498;29;20205;-78
2022/05/02 12:09:32;;;;;;;10.07;9.07;;;23.40;20.70;;;;;;4896095;29;20732;-79
2022/05/02 12:12:07;;;;;;;10.98;9.00;;;23.20;32.60;;;;;;4895918;29;20209;-78
2022/05/02 12:14:34;;;;;;;11.93;8.82;;;22.30;45.30;;;;;;4896248;29;20205;-78
2022/05/02 12:17:09;;;;;;;10.55;9.13;;;21.90;56.60;;;;;;4896429;29;20243;-78
2022/05/02 12:19:37;;;;;;;10.93;9.82;;;22.30;62.40;;;;;;4896640;29;20201;-79
2022/05/02 12:22:07;;;;;;;11.45;9.25;;;22.20;43.90;;;;;;4896048;29;20232;-78
2022/05/02 12:24:36;;;;;;;10.48;9.48;;;23.10;40.90;;;;;;4896423;29;20252;-79
2022/05/02 12:27:08;;;;;;;10.57;8.68;;;22.50;34.30;;;;;;4895266;29;20569;-79
2022/05/02 12:29:37;;;;;;;11.43;9.52;;;23.10;51.00;;;;;;4952082;29;20565;-78
2022/05/02 12:32:08;;;;;;;11.48;9.60;;;22.10;42.80;;;;;;4955288;29;20655;-79
2022/05/02 12:34:40;;;;;;;10.27;9.15;;;;;;;;;;4956040;29;20303;-79
2022/05/02 12:37:10;;;;;;;10.73;8.52;;;22.00;70.70;;;;;;4955354;29;20203;-79
2022/05/02 12:39:47;;;;;;;9.35;7.55;;;21.70;54.50;;;;;;4955591;29;20237;-78
2022/05/02 12:42:17;;;;;;;8.32;7.30;;;21.60;69.30;;;;;;4947453;29;20207;-78
2022/05/02 12:44:46;;;;;;;9.85;7.13;;;21.50;76.50;;;;;;4936325;29;20203;-78
2022/05/02 12:47:20;;;;;;;9.20;6.80;;;21.10;50.00;;;;;;4935756;29;20739;-78
2022/05/02 12:50:06;;;;;;;8.15;6.60;;;22.00;58.80;;;;;;4936162;29;20203;-78
2022/05/02 12:52:35;;;;;;;7.57;6.82;;;21.90;66.60;;;;;;4935865;29;20271;-78
2022/05/02 12:55:02;;;;;;;8.50;6.78;;;22.00;49.00;;;;;;4935921;29;20223;-79
2022/05/02 13:00:33;;;;;;;8.00;6.43;;;23.00;51.70;;;;;;4954654;28;20674;-78
2022/05/02 13:03:15;;;;;;;9.48;7.55;;;23.90;73.20;;;;;;4955087;29;20265;-79
2022/05/02 13:05:52;;;;;;;8.75;7.85;;;23.30;48.40;;;;;;4954935;29;20207;-78
2022/05/02 13:08:26;;;;;;;8.38;7.53;;;22.60;38.00;;;;;;4949252;28;20271;-79
2022/05/02 13:11:02;;;;;;;8.38;7.13;;;23.20;42.60;;;;;;4935218;29;20274;-78
2022/05/02 13:13:38;;;;;;;9.32;7.78;;;23.30;46.10;;;;;;4937103;29;20227;-80
2022/05/02 13:16:14;;;;;;;8.30;7.47;;;21.60;63.40;;;;;;4952494;28;20294;-81
2022/05/02 13:18:48;;;;;;;10.00;8.40;;;21.50;87.70;;;;;;4948853;29;20207;-81
2022/05/02 13:21:16;;;;;;;11.02;9.43;;;22.00;87.00;;;;;;4945447;29;20203;-81
2022/05/02 13:23:45;;;;;;;11.57;9.55;;;21.70;93.30;;;;;;4954686;29;20231;-80
2022/05/02 13:26:52;;;;;;;10.60;9.55;;;21.00;93.50;;;;;;4947429;29;20214;-81
2022/05/02 13:29:35;;;;;;;11.35;9.35;;;21.10;82.00;;;;;;4935286;29;20565;-81
2022/05/02 13:32:04;;;;;;;10.10;8.63;;;20.70;94.10;;;;;;4951447;28;20219;-81
2022/05/02 13:34:52;;;;;;;10.68;9.40;;;21.50;91.10;;;;;;4948799;29;20210;-80
2022/05/02 13:37:32;;;;;;;17.77;8.73;;;21.90;79.10;;;;;;4934799;29;20251;-81
2022/05/02 13:40:08;;;;;;;10.52;8.50;;;21.60;80.60;;;;;;4934735;29;20294;-80
2022/05/02 13:42:50;;;;;;;9.95;8.95;;;21.20;96.40;;;;;;4948836;29;20203;-80
2022/05/02 13:45:35;;;;;;;9.63;8.13;;;21.40;92.20;;;;;;4954313;29;20298;-81
2022/05/02 13:48:22;;;;;;;8.57;7.15;;;22.50;68.50;;;;;;4954152;29;20206;-81
2022/05/02 13:51:03;;;;;;;8.98;7.72;;;22.20;75.10;;;;;;4934952;29;20223;-81
2022/05/02 13:53:37;;;;;;;10.38;7.28;;;21.20;86.00;;;;;;4934491;29;20302;-81
2022/05/02 13:56:10;;;;;;;8.90;7.80;;;20.10;97.50;;;;;;4934963;29;20240;-79
2022/05/02 13:59:01;;;;;;;9.43;6.97;;;20.00;97.20;;;;;;4935461;29;20267;-79
2022/05/02 14:01:42;;;;;;;10.15;7.32;;;20.70;94.40;;;;;;4919741;29;20231;-79
2022/05/02 14:04:20;;;;;;;10.90;7.93;;;20.60;97.20;;;;;;4925746;29;20213;-79